createdAt,value
2023-03-10T00:00:22.148Z,94214.72
2023-03-10T00:02:50.094Z,94235.44
2023-03-10T00:05:19.073Z,94216.25
2023-03-10T00:07:46.911Z,94203.31
2023-03-10T00:10:14.798Z,94185.03
2023-03-10T00:12:41.376Z,94162.66
2023-03-10T00:15:08.843Z,94204.44
2023-03-10T00:17:35.378Z,94170.44
2023-03-10T00:20:02.280Z,94175.72
2023-03-10T00:22:28.723Z,94149.88
2023-03-10T00:24:55.175Z,94162.38
2023-03-10T00:27:21.652Z,94179.41
2023-03-10T00:29:51.826Z,94169.19
2023-03-10T00:32:18.602Z,94130.97
2023-03-10T00:34:46.098Z,94158.31
2023-03-10T00:37:12.610Z,94169.88
2023-03-10T00:39:39.238Z,94161.06
2023-03-10T00:42:06.046Z,94135.06
2023-03-10T00:44:32.541Z,94163.16
2023-03-10T00:46:59.037Z,94157.78
2023-03-10T00:49:25.523Z,94141.59
2023-03-10T00:51:51.951Z,94103.53
2023-03-10T00:54:18.706Z,94108.13
2023-03-10T00:56:45.180Z,94105.59
2023-03-10T00:59:12.315Z,94128.47
2023-03-10T01:01:41.659Z,94138.66
2023-03-10T01:04:16.374Z,94132.94
2023-03-10T01:06:44.503Z,94083.56
2023-03-10T01:09:11.138Z,94103.56
2023-03-10T01:11:37.643Z,94112.22
2023-03-10T01:14:07.417Z,94089.19
2023-03-10T01:16:34.147Z,94089.03
2023-03-10T01:19:00.726Z,94041.56
2023-03-10T01:21:30.770Z,94076.81
2023-03-10T01:23:57.690Z,94071.59
2023-03-10T01:26:24.350Z,94069.09
2023-03-10T01:28:50.873Z,94069.97
2023-03-10T01:31:18.376Z,94066.44
2023-03-10T01:33:45.996Z,94061.44
2023-03-10T01:36:17.592Z,94069.53
2023-03-10T01:38:46.478Z,94065.63
2023-03-10T01:41:14.127Z,94056.47
2023-03-10T01:43:42.780Z,94041.16
2023-03-10T01:46:40.489Z,94044.38
2023-03-10T01:49:24.358Z,94036.19
2023-03-10T01:51:59.625Z,94030.94
2023-03-10T01:54:32.727Z,94021.66
2023-03-10T01:56:59.659Z,94004.16
2023-03-10T01:59:27.477Z,94004.44
2023-03-10T02:01:57.684Z,94004.34
2023-03-10T02:04:44.744Z,93993.50
2023-03-10T02:07:12.932Z,94001.53
2023-03-10T02:09:43.056Z,93992.56
2023-03-10T02:12:10.648Z,93992.56
2023-03-10T02:14:37.709Z,93984.22
2023-03-10T02:17:07.062Z,93959.66
2023-03-10T02:19:38.319Z,93974.09
2023-03-10T02:22:11.615Z,93960.72
2023-03-10T02:24:46.956Z,93953.75
2023-03-10T02:27:19.269Z,93947.44
2023-03-10T02:29:59.216Z,93945.47
2023-03-10T02:32:33.726Z,93949.97
2023-03-10T02:35:00.851Z,93917.56
2023-03-10T02:37:30.582Z,93928.72
2023-03-10T02:39:58.714Z,93946.16
2023-03-10T02:42:32.671Z,93927.34
2023-03-10T02:45:00.151Z,93911.88
2023-03-10T02:47:26.711Z,93905.09
2023-03-10T02:49:53.274Z,93904.44
2023-03-10T02:52:29.144Z,93907.38
2023-03-10T02:54:55.813Z,93881.31
2023-03-10T02:57:22.311Z,93899.50
2023-03-10T02:59:49.012Z,93882.34
2023-03-10T03:02:15.489Z,93887.75
2023-03-10T03:04:42.028Z,93869.41
2023-03-10T03:07:08.687Z,93895.78
2023-03-10T03:09:35.936Z,93905.22
2023-03-10T03:12:02.852Z,93895.63
2023-03-10T03:14:29.755Z,93891.47
2023-03-10T03:16:57.087Z,93910.94
2023-03-10T03:19:23.660Z,93893.34
2023-03-10T03:21:50.341Z,93909.25
2023-03-10T03:24:20.845Z,93901.84
2023-03-10T03:26:47.743Z,93885.78
2023-03-10T03:29:18.084Z,93891.47
2023-03-10T03:31:45.495Z,93893.78
2023-03-10T03:34:20.817Z,93885.59
2023-03-10T03:36:48.970Z,93892.84
2023-03-10T03:39:20.850Z,93891.75
2023-03-10T03:41:53.407Z,93912.72
2023-03-10T03:44:20.400Z,93926.16
2023-03-10T03:46:48.481Z,93924.91
2023-03-10T03:49:15.070Z,93911.44
2023-03-10T03:51:42.276Z,93967.72
2023-03-10T03:54:09.784Z,93963.22
2023-03-10T03:56:38.567Z,93941.47
2023-03-10T03:59:05.792Z,93924.59
2023-03-10T04:01:33.012Z,93978.53
2023-03-10T04:04:00.344Z,93973.56
2023-03-10T04:06:27.448Z,93974.50
2023-03-10T04:08:55.045Z,93985.91
2023-03-10T04:11:23.722Z,94002.53
2023-03-10T04:13:51.040Z,94003.63
2023-03-10T04:16:18.429Z,94013.63
2023-03-10T04:18:45.495Z,94006.66
2023-03-10T04:21:14.444Z,94007.19
2023-03-10T04:23:42.222Z,94021.31
2023-03-10T04:26:11.476Z,93993.84
2023-03-10T04:28:39.445Z,93980.41
2023-03-10T04:31:14.637Z,93997.63
2023-03-10T04:33:42.233Z,93999.03
2023-03-10T04:36:09.686Z,93984.69
2023-03-10T04:38:36.735Z,93994.59
2023-03-10T04:41:05.093Z,93992.44
2023-03-10T04:43:37.304Z,94009.72
2023-03-10T04:46:05.350Z,93990.91
2023-03-10T04:48:32.646Z,94003.31
2023-03-10T04:51:01.571Z,93997.16
2023-03-10T04:53:32.653Z,93996.59
2023-03-10T04:56:02.097Z,93997.25
2023-03-10T04:58:49.313Z,93945.69
2023-03-10T05:01:16.350Z,93997.88
2023-03-10T05:03:47.689Z,93965.91
2023-03-10T05:06:20.417Z,94005.28
2023-03-10T05:08:55.536Z,94002.81
2023-03-10T05:11:24.035Z,93996.47
2023-03-10T05:13:51.171Z,93956.63
2023-03-10T05:16:20.521Z,93956.50
2023-03-10T05:18:48.258Z,93994.00
2023-03-10T05:21:18.976Z,93986.88
2023-03-10T05:23:46.273Z,93996.00
2023-03-10T05:26:14.808Z,93998.44
2023-03-10T05:28:42.006Z,93980.09
2023-03-10T05:31:11.214Z,93987.03
2023-03-10T05:33:38.974Z,93988.44
2023-03-10T05:36:07.907Z,93998.00
2023-03-10T05:38:35.987Z,93969.44
2023-03-10T05:41:09.446Z,93993.03
2023-03-10T05:43:37.266Z,94007.22
2023-03-10T05:46:04.866Z,94009.41
2023-03-10T05:48:35.795Z,93987.00
2023-03-10T05:51:08.073Z,93968.91
2023-03-10T05:53:36.598Z,94003.97
2023-03-10T05:56:07.116Z,93986.97
2023-03-10T05:58:33.868Z,93978.47
2023-03-10T06:01:00.744Z,93978.91
2023-03-10T06:03:28.732Z,93964.88
2023-03-10T06:05:59.314Z,93964.91
2023-03-10T06:08:29.783Z,93947.16
2023-03-10T06:10:57.586Z,93963.38
2023-03-10T06:13:24.972Z,93955.13
2023-03-10T06:15:53.331Z,93951.50
2023-03-10T06:18:20.806Z,93961.91
2023-03-10T06:20:48.097Z,93948.81
2023-03-10T06:23:16.052Z,93947.22
2023-03-10T06:25:42.999Z,93938.59
2023-03-10T06:28:10.892Z,93929.81
2023-03-10T06:30:37.821Z,93934.31
2023-03-10T06:33:04.669Z,93933.38
2023-03-10T06:35:32.325Z,93927.84
2023-03-10T06:37:58.850Z,93902.66
2023-03-10T06:40:25.357Z,93917.44
2023-03-10T06:42:51.925Z,93911.78
2023-03-10T06:45:18.454Z,93881.13
2023-03-10T06:47:45.332Z,93891.44
2023-03-10T06:50:14.780Z,93861.53
2023-03-10T06:52:42.504Z,93880.63
2023-03-10T06:55:10.735Z,93909.09
2023-03-10T06:57:37.797Z,93919.75
2023-03-10T07:00:06.876Z,93893.19
2023-03-10T07:02:33.332Z,93916.72
2023-03-10T07:05:00.259Z,93901.44
2023-03-10T07:07:27.207Z,93893.28
2023-03-10T07:09:54.356Z,93874.59
2023-03-10T07:12:21.116Z,93869.69
2023-03-10T07:14:48.326Z,93875.94
2023-03-10T07:17:15.009Z,93859.59
2023-03-10T07:19:49.405Z,93878.69
2023-03-10T07:22:16.334Z,93860.53
2023-03-10T07:24:43.258Z,93875.41
2023-03-10T07:27:10.330Z,93874.97
2023-03-10T07:29:37.513Z,93874.44
2023-03-10T07:32:04.733Z,93880.34
2023-03-10T07:34:31.580Z,93894.22
2023-03-10T07:36:58.827Z,93891.66
2023-03-10T07:39:25.829Z,93890.34
2023-03-10T07:41:52.785Z,93893.19
2023-03-10T07:44:19.612Z,93879.53
2023-03-10T07:46:46.455Z,93886.38
2023-03-10T07:49:13.402Z,93870.31
2023-03-10T07:51:41.419Z,93856.78
2023-03-10T07:54:09.444Z,93891.78
2023-03-10T07:56:36.678Z,93867.44
2023-03-10T07:59:03.747Z,93883.66
2023-03-10T08:01:30.977Z,93869.25
2023-03-10T08:03:58.408Z,93851.94
2023-03-10T08:06:29.399Z,93865.88
2023-03-10T08:08:57.125Z,93855.28
2023-03-10T08:11:24.578Z,93832.88
2023-03-10T08:13:51.586Z,93854.03
2023-03-10T08:16:20.967Z,93853.41
2023-03-10T08:18:53.310Z,93851.56
2023-03-10T08:21:20.469Z,93836.28
2023-03-10T08:23:47.523Z,93840.34
2023-03-10T08:26:16.755Z,93832.69
2023-03-10T08:28:43.816Z,93798.06
2023-03-10T08:31:16.680Z,93848.38
2023-03-10T08:33:44.696Z,93818.38
2023-03-10T08:36:15.872Z,93825.63
2023-03-10T08:38:43.954Z,93823.56
2023-03-10T08:41:20.226Z,93825.88
2023-03-10T08:43:49.267Z,93834.53
2023-03-10T08:46:18.173Z,93834.88
2023-03-10T08:48:45.219Z,93819.50
2023-03-10T08:51:15.750Z,93825.50
2023-03-10T08:53:44.833Z,93832.13
2023-03-10T08:56:11.584Z,93820.03
2023-03-10T08:58:38.785Z,93827.28
2023-03-10T09:01:05.840Z,93826.91
2023-03-10T09:03:36.178Z,93818.34
2023-03-10T09:06:04.143Z,93835.34
2023-03-10T09:08:31.157Z,93831.03
2023-03-10T09:10:58.043Z,93831.38
2023-03-10T09:13:25.018Z,93838.63
2023-03-10T09:15:53.069Z,93847.44
2023-03-10T09:18:20.749Z,93842.84
2023-03-10T09:20:47.626Z,93832.34
2023-03-10T09:23:16.015Z,93844.97
2023-03-10T09:25:43.327Z,93843.63
2023-03-10T09:28:11.631Z,93841.81
2023-03-10T09:30:41.600Z,93836.00
2023-03-10T09:33:17.615Z,93848.03
2023-03-10T09:35:52.732Z,93850.34
2023-03-10T09:38:25.418Z,93807.72
2023-03-10T09:41:26.311Z,93856.91
2023-03-10T09:44:30.677Z,93832.44
2023-03-10T09:47:09.352Z,93867.16
2023-03-10T09:50:04.806Z,93842.50
2023-03-10T09:52:40.789Z,93878.31
2023-03-10T09:55:22.173Z,93879.59
2023-03-10T09:57:55.119Z,93888.78
2023-03-10T10:00:27.168Z,93880.25
2023-03-10T10:03:10.118Z,93903.94
2023-03-10T10:05:38.970Z,93908.53
2023-03-10T10:08:26.125Z,93935.28
2023-03-10T10:10:58.510Z,93935.84
2023-03-10T10:13:28.166Z,93934.06
2023-03-10T10:16:34.647Z,93925.13
2023-03-10T10:19:29.886Z,93966.66
2023-03-10T10:22:10.310Z,93966.81
2023-03-10T10:24:36.838Z,93981.63
2023-03-10T10:27:03.466Z,93974.34
2023-03-10T10:29:36.596Z,93995.03
2023-03-10T10:32:11.019Z,94004.41
2023-03-10T10:34:40.508Z,94002.84
2023-03-10T10:37:30.681Z,94028.59
2023-03-10T10:39:59.610Z,94018.47
2023-03-10T10:42:29.788Z,93976.09
2023-03-10T10:44:58.958Z,93989.03
2023-03-10T10:47:28.397Z,93991.59
2023-03-10T10:50:08.269Z,93985.06
2023-03-10T10:52:34.737Z,93944.75
2023-03-10T10:55:02.335Z,93955.41
2023-03-10T10:57:33.023Z,93933.91
2023-03-10T11:00:25.159Z,93941.06
2023-03-10T11:02:53.016Z,93885.84
2023-03-10T11:05:37.540Z,93927.41
2023-03-10T11:08:32.991Z,93924.06
2023-03-10T11:11:08.152Z,93913.16
2023-03-10T11:13:43.964Z,93903.22
2023-03-10T11:16:25.747Z,93923.91
2023-03-10T11:19:28.746Z,93897.63
2023-03-10T11:22:03.506Z,93897.56
2023-03-10T11:24:40.312Z,93904.38
2023-03-10T11:27:26.898Z,93888.28
2023-03-10T11:30:05.943Z,93879.03
2023-03-10T11:32:45.784Z,93878.56
2023-03-10T11:35:27.874Z,93868.38
2023-03-10T11:38:31.954Z,93862.28
2023-03-10T11:41:06.039Z,93853.47
2023-03-10T11:43:57.008Z,93863.41
2023-03-10T11:47:06.907Z,93832.31
2023-03-10T11:49:38.184Z,93858.41
2023-03-10T11:52:11.896Z,93835.91
2023-03-10T11:54:45.093Z,93829.19
2023-03-10T11:57:20.563Z,93831.84
2023-03-10T12:00:02.406Z,93831.06
2023-03-10T12:02:41.558Z,93838.94
2023-03-10T12:05:17.395Z,93812.06
2023-03-10T12:07:51.260Z,93829.03
2023-03-10T12:10:21.776Z,93803.13
2023-03-10T12:12:51.005Z,93803.53
2023-03-10T12:15:22.298Z,93809.44
2023-03-10T12:17:50.239Z,93778.97
2023-03-10T12:20:17.373Z,93814.00
2023-03-10T12:22:50.850Z,93824.25
2023-03-10T12:25:29.630Z,93815.97
2023-03-10T12:28:25.588Z,93828.69
2023-03-10T12:31:03.406Z,93823.56
2023-03-10T12:33:45.133Z,93827.38
2023-03-10T12:36:31.823Z,93824.13
2023-03-10T12:39:20.168Z,93823.75
2023-03-10T12:41:52.085Z,93817.53
2023-03-10T12:44:33.920Z,93825.34
2023-03-10T12:47:17.653Z,93836.09
2023-03-10T12:49:55.442Z,93815.78
2023-03-10T12:52:36.273Z,93830.50
2023-03-10T12:55:14.311Z,93826.38
2023-03-10T12:57:56.397Z,93827.41
2023-03-10T13:00:45.995Z,93824.25
2023-03-10T13:03:35.200Z,93837.31
2023-03-10T13:06:22.086Z,93830.03
2023-03-10T13:09:10.104Z,93843.50
2023-03-10T13:11:43.108Z,93806.72
2023-03-10T13:14:13.992Z,93826.53
2023-03-10T13:16:41.455Z,93814.84
2023-03-10T13:19:20.908Z,93832.34
2023-03-10T13:21:49.051Z,93816.25
2023-03-10T13:24:30.818Z,93837.53
2023-03-10T13:27:03.498Z,93845.28
2023-03-10T13:29:29.983Z,93835.88
2023-03-10T13:31:56.733Z,93871.50
2023-03-10T13:34:27.838Z,93865.72
2023-03-10T13:37:03.095Z,93860.78
2023-03-10T13:39:30.052Z,93869.28
2023-03-10T13:42:01.996Z,93860.19
2023-03-10T13:44:39.893Z,93843.03
2023-03-10T13:47:19.087Z,93855.97
2023-03-10T13:49:50.528Z,93857.28
2023-03-10T13:52:20.567Z,93853.03
2023-03-10T13:54:47.525Z,93868.75
2023-03-10T13:57:14.417Z,93868.84
2023-03-10T13:59:41.241Z,93834.50
2023-03-10T14:02:19.262Z,93859.63
2023-03-10T14:04:51.675Z,93860.00
2023-03-10T14:07:21.021Z,93879.44
2023-03-10T14:10:03.879Z,93881.09
2023-03-10T14:12:41.082Z,93879.34
2023-03-10T14:15:26.740Z,93900.69
2023-03-10T14:18:13.317Z,93882.97
2023-03-10T14:20:45.036Z,93891.66
2023-03-10T14:23:35.563Z,93879.13
2023-03-10T14:26:02.164Z,93862.97
2023-03-10T14:28:31.340Z,93841.22
2023-03-10T14:31:06.680Z,93878.34
2023-03-10T14:33:33.474Z,93869.47
2023-03-10T14:35:59.999Z,93881.28
2023-03-10T14:38:26.585Z,93869.13
2023-03-10T14:40:54.955Z,93869.47
2023-03-10T14:43:25.451Z,93889.34
2023-03-10T14:45:54.773Z,93876.28
2023-03-10T14:48:24.611Z,93858.38
2023-03-10T14:50:51.654Z,93870.03
2023-03-10T14:53:21.486Z,93870.13
2023-03-10T14:55:51.576Z,93860.16
2023-03-10T14:58:21.778Z,93869.34
2023-03-10T15:00:49.509Z,93870.34
2023-03-10T15:03:16.310Z,93877.81
2023-03-10T15:05:48.794Z,93881.75
2023-03-10T15:08:17.241Z,93886.63
2023-03-10T15:10:48.272Z,93909.69
2023-03-10T15:13:18.307Z,93925.72
2023-03-10T15:15:47.020Z,93920.53
2023-03-10T15:18:16.901Z,93919.19
2023-03-10T15:20:43.620Z,93906.09
2023-03-10T15:23:12.493Z,93914.41
2023-03-10T15:25:41.241Z,93908.66
2023-03-10T15:28:07.738Z,93886.41
2023-03-10T15:30:36.366Z,93920.03
2023-03-10T15:33:03.713Z,93935.56
2023-03-10T15:35:30.961Z,93916.09
2023-03-10T15:37:58.074Z,93932.09
2023-03-10T15:40:27.068Z,93929.69
2023-03-10T15:42:55.784Z,93947.44
2023-03-10T15:45:22.427Z,93918.53
2023-03-10T15:47:48.987Z,93941.56
2023-03-10T15:50:19.134Z,93938.25
2023-03-10T15:52:47.246Z,93944.91
2023-03-10T15:55:14.957Z,93939.69
2023-03-10T15:57:41.881Z,93904.09
2023-03-10T16:00:09.192Z,93920.13
2023-03-10T16:02:35.677Z,93906.28
2023-03-10T16:05:02.338Z,93939.59
2023-03-10T16:07:29.018Z,93947.00
2023-03-10T16:09:55.539Z,93937.44
2023-03-10T16:12:23.361Z,93948.38
2023-03-10T16:14:50.117Z,93909.22
2023-03-10T16:17:17.091Z,93931.13
2023-03-10T16:19:43.781Z,93930.31
2023-03-10T16:22:10.645Z,93948.84
2023-03-10T16:24:37.150Z,93966.00
2023-03-10T16:27:03.737Z,93902.25
2023-03-10T16:29:30.425Z,93939.41
2023-03-10T16:31:56.934Z,93890.97
2023-03-10T16:34:23.532Z,93923.34
2023-03-10T16:36:50.640Z,93932.66
2023-03-10T16:39:17.957Z,93958.41
2023-03-10T16:41:44.647Z,93983.56
2023-03-10T16:44:13.171Z,93985.41
2023-03-10T16:46:39.787Z,93976.34
2023-03-10T16:49:07.232Z,93962.91
2023-03-10T16:51:35.298Z,93994.53
2023-03-10T16:54:05.020Z,93989.94
2023-03-10T16:56:33.502Z,93994.88
2023-03-10T16:59:00.256Z,93959.69
2023-03-10T17:01:26.966Z,93990.41
2023-03-10T17:03:54.232Z,93963.84
2023-03-10T17:06:24.178Z,93994.56
2023-03-10T17:08:51.641Z,93967.25
2023-03-10T17:11:30.446Z,93983.63
2023-03-10T17:14:00.146Z,93983.31
2023-03-10T17:16:29.549Z,94004.66
2023-03-10T17:18:58.223Z,94004.31
2023-03-10T17:21:27.582Z,94029.03
2023-03-10T17:23:54.667Z,94023.19
2023-03-10T17:26:22.045Z,94021.66
2023-03-10T17:28:50.749Z,94033.72
2023-03-10T17:31:23.327Z,94053.63
2023-03-10T17:33:50.287Z,94042.38
2023-03-10T17:36:17.625Z,94048.69
2023-03-10T17:38:45.258Z,94066.75
2023-03-10T17:41:14.884Z,94067.69
2023-03-10T17:43:42.099Z,94079.91
2023-03-10T17:46:21.600Z,94090.25
2023-03-10T17:48:48.584Z,94043.44
2023-03-10T17:51:17.489Z,94095.78
2023-03-10T17:53:45.148Z,94131.31
2023-03-10T17:56:12.603Z,94124.66
2023-03-10T17:58:39.695Z,94097.13
2023-03-10T18:01:14.827Z,94119.25
2023-03-10T18:03:41.759Z,94139.19
2023-03-10T18:06:14.271Z,94108.88
2023-03-10T18:08:41.679Z,94101.59
2023-03-10T18:11:08.164Z,94104.03
2023-03-10T18:13:35.756Z,94103.13
2023-03-10T18:16:02.757Z,94103.41
2023-03-10T18:18:29.308Z,94105.53
2023-03-10T18:20:56.012Z,94085.72
2023-03-10T18:23:23.183Z,94128.09
2023-03-10T18:25:50.787Z,94109.13
2023-03-10T18:28:20.674Z,94117.63
2023-03-10T18:30:49.839Z,94115.84
2023-03-10T18:33:16.503Z,94128.56
2023-03-10T18:35:45.098Z,94120.06
2023-03-10T18:38:13.141Z,94134.31
2023-03-10T18:40:40.871Z,94127.28
2023-03-10T18:43:07.763Z,94089.28
2023-03-10T18:45:34.336Z,94114.81
2023-03-10T18:48:00.938Z,94145.38
2023-03-10T18:50:27.377Z,94166.53
2023-03-10T18:52:53.808Z,94154.81
2023-03-10T18:55:21.334Z,94216.06
2023-03-10T18:57:47.811Z,94185.91
2023-03-10T19:00:15.512Z,94170.78
2023-03-10T19:02:42.767Z,94160.31
2023-03-10T19:05:14.537Z,94160.91
2023-03-10T19:07:41.066Z,94148.22
2023-03-10T19:10:08.527Z,94095.63
2023-03-10T19:12:34.964Z,94108.09
2023-03-10T19:15:06.717Z,94130.78
2023-03-10T19:17:33.625Z,94133.41
2023-03-10T19:20:00.125Z,94149.78
2023-03-10T19:22:27.274Z,94161.19
2023-03-10T19:24:54.059Z,94161.31
2023-03-10T19:27:20.477Z,94136.22
2023-03-10T19:29:51.936Z,94134.75
2023-03-10T19:32:19.313Z,94139.97
2023-03-10T19:34:46.546Z,94120.81
2023-03-10T19:37:13.199Z,94104.72
2023-03-10T19:39:39.784Z,94115.56
2023-03-10T19:42:06.388Z,94082.63
2023-03-10T19:44:33.198Z,94122.75
2023-03-10T19:47:00.237Z,94128.09
2023-03-10T19:49:26.791Z,94096.78
2023-03-10T19:51:53.251Z,94105.66
2023-03-10T19:54:19.734Z,94097.94
2023-03-10T19:56:46.206Z,94105.09
2023-03-10T19:59:12.749Z,94083.78
2023-03-10T20:01:40.318Z,94118.81
2023-03-10T20:04:06.931Z,94115.72
2023-03-10T20:06:33.441Z,94127.22
2023-03-10T20:08:59.929Z,94121.63
2023-03-10T20:11:26.434Z,94134.19
2023-03-10T20:13:54.290Z,94130.41
2023-03-10T20:16:23.823Z,94140.50
2023-03-10T20:18:50.682Z,94121.09
2023-03-10T20:21:17.219Z,94072.19
2023-03-10T20:23:47.480Z,94081.91
2023-03-10T20:26:14.585Z,94116.03
2023-03-10T20:28:41.601Z,94100.88
2023-03-10T20:31:08.418Z,94080.72
2023-03-10T20:33:36.509Z,94122.44
2023-03-10T20:36:03.244Z,94090.47
2023-03-10T20:38:29.826Z,94122.56
2023-03-10T20:40:56.319Z,94088.25
2023-03-10T20:43:22.852Z,94127.81
2023-03-10T20:45:52.193Z,94144.59
2023-03-10T20:48:18.694Z,94123.69
2023-03-10T20:50:45.260Z,94137.63
2023-03-10T20:53:11.728Z,94155.66
2023-03-10T20:55:38.295Z,94154.00
2023-03-10T20:58:04.834Z,94154.53
2023-03-10T21:00:31.396Z,94169.16
2023-03-10T21:02:59.393Z,94147.47
2023-03-10T21:05:27.760Z,94176.09
2023-03-10T21:07:54.990Z,94189.97
2023-03-10T21:10:22.524Z,94186.50
2023-03-10T21:12:49.615Z,94209.06
2023-03-10T21:15:16.715Z,94225.28
2023-03-10T21:17:44.184Z,94230.88
2023-03-10T21:20:15.350Z,94258.38
2023-03-10T21:22:41.891Z,94234.91
2023-03-10T21:25:13.883Z,94261.97
2023-03-10T21:27:40.511Z,94241.53
2023-03-10T21:30:09.812Z,94259.69
2023-03-10T21:32:36.928Z,94248.41
2023-03-10T21:35:04.692Z,94243.44
2023-03-10T21:37:34.892Z,94270.16
2023-03-10T21:40:05.186Z,94260.81
2023-03-10T21:42:31.654Z,94269.16
2023-03-10T21:44:58.093Z,94280.38
2023-03-10T21:47:24.598Z,94312.72
2023-03-10T21:49:51.083Z,94298.66
2023-03-10T21:52:18.106Z,94288.00
2023-03-10T21:54:44.638Z,94336.31
2023-03-10T21:57:11.832Z,94319.47
2023-03-10T21:59:39.079Z,94354.16
2023-03-10T22:02:05.647Z,94338.56
2023-03-10T22:04:32.845Z,94350.81
2023-03-10T22:06:59.975Z,94355.41
2023-03-10T22:09:26.769Z,94366.00
2023-03-10T22:11:53.211Z,94363.22
2023-03-10T22:14:19.681Z,94360.63
2023-03-10T22:16:46.126Z,94374.81
2023-03-10T22:19:14.991Z,94371.63
2023-03-10T22:21:41.497Z,94373.69
2023-03-10T22:24:08.014Z,94362.97
2023-03-10T22:26:34.496Z,94396.69
2023-03-10T22:29:01.056Z,94414.00
2023-03-10T22:31:27.808Z,94433.09
2023-03-10T22:33:54.285Z,94454.88
2023-03-10T22:36:20.881Z,94455.91
2023-03-10T22:38:47.382Z,94475.75
2023-03-10T22:41:14.432Z,94445.16
2023-03-10T22:43:41.216Z,94462.69
2023-03-10T22:46:16.011Z,94484.84
2023-03-10T22:48:43.470Z,94449.44
2023-03-10T22:51:16.461Z,94458.50
2023-03-10T22:53:43.387Z,94441.34
2023-03-10T22:56:09.824Z,94456.81
2023-03-10T22:58:37.577Z,94480.69
2023-03-10T23:01:04.536Z,94486.44
2023-03-10T23:03:31.144Z,94483.09
2023-03-10T23:05:58.520Z,94479.47
2023-03-10T23:08:25.083Z,94505.25
2023-03-10T23:10:52.069Z,94484.75
2023-03-10T23:13:18.665Z,94518.03
2023-03-10T23:15:45.628Z,94532.88
2023-03-10T23:18:12.367Z,94509.00
2023-03-10T23:20:47.680Z,94518.91
2023-03-10T23:23:17.253Z,94546.22
2023-03-10T23:25:47.196Z,94568.09
2023-03-10T23:28:15.347Z,94579.53
2023-03-10T23:30:43.314Z,94599.63
2023-03-10T23:33:13.404Z,94599.88
2023-03-10T23:35:40.152Z,94595.00
2023-03-10T23:38:06.889Z,94604.63
2023-03-10T23:40:35.000Z,94624.94
2023-03-10T23:43:03.794Z,94620.28
2023-03-10T23:45:31.610Z,94617.66
2023-03-10T23:48:01.291Z,94604.72
2023-03-10T23:50:35.998Z,94629.97
2023-03-10T23:53:03.985Z,94639.66
2023-03-10T23:55:34.602Z,94607.63
2023-03-10T23:58:01.180Z,94596.97
